createdAt,value
2019-03-10T00:00:34.372Z,99.90
2019-03-10T00:03:05.462Z,99.90
2019-03-10T00:05:35.963Z,99.90
2019-03-10T00:08:08.066Z,99.90
2019-03-10T00:10:38.488Z,99.90
2019-03-10T00:13:11.369Z,99.90
2019-03-10T00:15:41.854Z,99.90
2019-03-10T00:18:12.293Z,99.90
2019-03-10T00:20:42.727Z,99.90
2019-03-10T00:23:13.246Z,99.90
2019-03-10T00:25:43.708Z,99.90
2019-03-10T00:28:14.550Z,99.90
2019-03-10T00:30:46.768Z,99.90
2019-03-10T00:33:17.234Z,99.90
2019-03-10T00:35:47.699Z,99.90
2019-03-10T00:38:18.205Z,99.90
2019-03-10T00:41:34.858Z,99.90
2019-03-10T00:44:44.944Z,99.90
2019-03-10T00:47:51.992Z,99.90
2019-03-10T00:50:57.272Z,99.90
2019-03-10T00:53:27.698Z,99.90
2019-03-10T00:55:58.128Z,99.90
2019-03-10T00:58:28.702Z,99.90
2019-03-10T01:00:59.180Z,99.90
2019-03-10T01:03:30.028Z,99.90
2019-03-10T01:06:00.540Z,99.90
2019-03-10T01:08:31.035Z,99.90
2019-03-10T01:11:01.613Z,99.90
2019-03-10T01:13:32.183Z,99.90
2019-03-10T01:16:02.846Z,99.90
2019-03-10T01:18:34.378Z,99.90
2019-03-10T01:21:05.339Z,99.90
2019-03-10T01:23:35.890Z,99.90
2019-03-10T01:26:06.390Z,99.90
2019-03-10T01:28:36.772Z,99.90
2019-03-10T01:31:21.740Z,99.90
2019-03-10T01:34:17.352Z,99.90
2019-03-10T01:36:47.894Z,99.90
2019-03-10T01:39:18.457Z,99.90
2019-03-10T01:41:48.922Z,99.90
2019-03-10T01:44:19.400Z,99.90
2019-03-10T01:46:49.861Z,99.90
2019-03-10T01:49:20.423Z,99.90
2019-03-10T01:51:50.922Z,99.90
2019-03-10T01:54:21.525Z,99.90
2019-03-10T01:56:52.050Z,99.90
2019-03-10T01:59:22.404Z,99.90
2019-03-10T02:01:54.322Z,99.90
2019-03-10T02:04:24.886Z,99.90
2019-03-10T02:06:55.393Z,99.90
2019-03-10T02:09:25.821Z,99.90
2019-03-10T02:11:56.244Z,99.90
2019-03-10T02:14:26.744Z,99.90
2019-03-10T02:16:57.322Z,99.90
2019-03-10T02:19:27.680Z,99.90
2019-03-10T02:21:58.119Z,99.90
2019-03-10T02:24:28.665Z,99.90
2019-03-10T02:26:59.082Z,99.90
2019-03-10T02:29:29.974Z,99.90
2019-03-10T02:32:00.453Z,99.90
2019-03-10T02:34:30.840Z,99.90
2019-03-10T02:37:01.319Z,99.90
2019-03-10T02:39:31.768Z,99.90
2019-03-10T02:42:02.212Z,99.90
2019-03-10T02:44:32.659Z,99.90
2019-03-10T02:47:03.103Z,99.90
2019-03-10T02:49:33.518Z,99.90
2019-03-10T02:52:03.983Z,99.90
2019-03-10T02:54:34.586Z,99.90
2019-03-10T02:57:05.237Z,99.90
2019-03-10T02:59:35.884Z,99.90
2019-03-10T03:02:06.314Z,99.90
2019-03-10T03:04:37.925Z,99.90
2019-03-10T03:07:08.378Z,99.90
2019-03-10T03:09:38.769Z,99.90
2019-03-10T03:12:09.177Z,99.90
2019-03-10T03:14:40.917Z,99.90
2019-03-10T03:17:11.478Z,99.90
2019-03-10T03:19:42.265Z,99.90
2019-03-10T03:22:12.695Z,99.90
2019-03-10T03:24:43.057Z,99.90
2019-03-10T03:27:14.825Z,99.90
2019-03-10T03:29:47.545Z,99.90
2019-03-10T03:32:18.037Z,99.90
2019-03-10T03:34:48.555Z,99.90
2019-03-10T03:37:21.143Z,99.90
2019-03-10T03:39:53.360Z,99.90
2019-03-10T03:42:24.193Z,99.90
2019-03-10T03:44:55.144Z,99.90
2019-03-10T03:47:25.727Z,99.90
2019-03-10T03:49:56.248Z,99.90
2019-03-10T03:52:26.684Z,99.90
2019-03-10T03:54:57.188Z,99.90
2019-03-10T03:57:27.862Z,99.90
2019-03-10T03:59:58.428Z,99.90
2019-03-10T04:02:37.916Z,99.90
2019-03-10T04:05:09.387Z,99.90
2019-03-10T04:07:39.714Z,99.90
2019-03-10T04:10:11.314Z,99.90
2019-03-10T04:12:41.632Z,99.90
2019-03-10T04:15:12.082Z,99.90
2019-03-10T04:17:42.523Z,99.90
2019-03-10T04:20:14.806Z,99.90
2019-03-10T04:22:45.162Z,99.90
2019-03-10T04:25:15.763Z,99.90
2019-03-10T04:27:46.198Z,99.90
2019-03-10T04:30:16.823Z,99.90
2019-03-10T04:32:47.380Z,99.90
2019-03-10T04:35:18.425Z,99.90
2019-03-10T04:37:49.328Z,99.90
2019-03-10T04:40:19.813Z,99.90
2019-03-10T04:42:50.198Z,99.90
2019-03-10T04:45:20.582Z,99.90
2019-03-10T04:47:51.031Z,99.90
2019-03-10T04:50:21.539Z,99.90
2019-03-10T04:52:51.968Z,99.90
2019-03-10T04:55:27.757Z,99.90
2019-03-10T04:58:03.840Z,99.90
2019-03-10T05:00:37.334Z,99.90
2019-03-10T05:03:08.659Z,99.90
2019-03-10T05:05:39.211Z,99.90
2019-03-10T05:08:09.688Z,99.90
2019-03-10T05:10:39.945Z,99.90
2019-03-10T05:13:10.491Z,99.90
2019-03-10T05:15:40.962Z,99.90
2019-03-10T05:18:11.416Z,99.90
2019-03-10T05:20:43.828Z,99.90
2019-03-10T05:23:34.708Z,99.90
2019-03-10T05:26:05.125Z,99.90
2019-03-10T05:28:36.405Z,99.90
2019-03-10T05:31:07.181Z,99.90
2019-03-10T05:33:39.138Z,99.90
2019-03-10T05:36:09.694Z,99.90
2019-03-10T05:38:40.051Z,99.90
2019-03-10T05:41:10.515Z,99.90
2019-03-10T05:43:40.945Z,99.90
2019-03-10T05:46:11.397Z,99.90
2019-03-10T05:48:41.740Z,99.90
2019-03-10T05:51:12.209Z,99.90
2019-03-10T05:53:42.583Z,99.90
2019-03-10T05:56:12.993Z,99.90
2019-03-10T05:58:43.347Z,99.90
2019-03-10T06:01:14.005Z,99.90
2019-03-10T06:03:44.959Z,99.90
2019-03-10T06:06:15.529Z,99.90
2019-03-10T06:08:46.003Z,99.90
2019-03-10T06:11:16.463Z,99.90
2019-03-10T06:13:47.141Z,99.90
2019-03-10T06:16:17.531Z,99.90
2019-03-10T06:18:47.915Z,99.90
2019-03-10T06:21:18.342Z,99.90
2019-03-10T06:23:48.777Z,99.90
2019-03-10T06:26:19.247Z,99.90
2019-03-10T06:28:50.954Z,99.90
2019-03-10T06:31:22.545Z,99.90
2019-03-10T06:33:52.941Z,99.90
2019-03-10T06:36:23.355Z,99.90
2019-03-10T06:38:55.169Z,99.90
2019-03-10T06:41:26.926Z,99.90
2019-03-10T06:43:57.339Z,99.90
2019-03-10T06:46:27.764Z,99.90
2019-03-10T06:48:58.225Z,99.90
2019-03-10T06:51:28.724Z,99.90
2019-03-10T06:53:59.177Z,99.90
2019-03-10T06:56:29.579Z,99.90
2019-03-10T06:59:03.721Z,99.90
2019-03-10T07:01:34.245Z,99.90
2019-03-10T07:04:04.659Z,99.90
2019-03-10T07:06:35.035Z,99.90
2019-03-10T07:09:06.449Z,99.90
2019-03-10T07:11:37.152Z,99.90
2019-03-10T07:14:07.647Z,99.90
2019-03-10T07:16:39.219Z,99.90
2019-03-10T07:19:09.807Z,99.90
2019-03-10T07:21:40.243Z,99.90
2019-03-10T07:24:10.739Z,99.90
2019-03-10T07:26:41.225Z,99.90
2019-03-10T07:29:29.540Z,99.90
2019-03-10T07:32:23.202Z,99.90
2019-03-10T07:35:15.360Z,99.90
2019-03-10T07:38:01.513Z,99.90
2019-03-10T07:41:00.092Z,99.90
2019-03-10T07:43:44.550Z,99.90
2019-03-10T07:46:32.462Z,99.90
2019-03-10T07:49:14.670Z,99.90
2019-03-10T07:52:19.568Z,99.90
2019-03-10T07:54:59.617Z,99.90
2019-03-10T07:57:44.669Z,99.90
2019-03-10T08:00:39.523Z,99.90
2019-03-10T08:03:27.493Z,99.90
2019-03-10T08:06:16.786Z,99.90
2019-03-10T08:09:04.797Z,99.90
2019-03-10T08:11:45.932Z,99.90
2019-03-10T08:14:31.995Z,99.90
2019-03-10T08:17:09.503Z,99.90
2019-03-10T08:19:59.702Z,99.90
2019-03-10T08:22:51.871Z,99.90
2019-03-10T08:25:40.155Z,99.90
2019-03-10T08:28:29.682Z,99.90
2019-03-10T08:31:22.111Z,99.90
2019-03-10T08:34:22.197Z,99.90
2019-03-10T08:37:10.137Z,99.90
2019-03-10T08:39:50.556Z,99.90
2019-03-10T08:42:50.243Z,99.90
2019-03-10T08:45:39.643Z,99.90
2019-03-10T08:48:41.361Z,99.90
2019-03-10T08:51:31.767Z,99.90
2019-03-10T08:54:33.863Z,99.90
2019-03-10T08:57:18.317Z,99.90
2019-03-10T09:00:13.845Z,99.90
2019-03-10T09:03:15.323Z,99.90
2019-03-10T09:05:54.994Z,99.90
2019-03-10T09:08:56.645Z,99.90
2019-03-10T09:11:44.888Z,99.90
2019-03-10T09:14:43.035Z,99.90
2019-03-10T09:17:19.327Z,99.90
2019-03-10T09:20:08.732Z,99.90
2019-03-10T09:22:45.764Z,99.90
2019-03-10T09:25:41.125Z,99.90
2019-03-10T09:28:29.247Z,99.90
2019-03-10T09:31:21.623Z,99.90
2019-03-10T09:34:26.063Z,99.90
2019-03-10T09:37:11.746Z,99.90
2019-03-10T09:40:01.171Z,99.90
2019-03-10T09:43:08.995Z,99.90
2019-03-10T09:45:56.931Z,99.90
2019-03-10T09:48:44.767Z,99.90
2019-03-10T09:51:26.797Z,99.90
2019-03-10T09:54:15.031Z,99.90
2019-03-10T09:57:02.627Z,99.90
2019-03-10T09:59:45.355Z,99.90
2019-03-10T10:02:37.744Z,99.90
2019-03-10T10:05:17.459Z,99.90
2019-03-10T10:08:19.001Z,99.90
2019-03-10T10:10:55.795Z,99.90
2019-03-10T10:13:47.997Z,99.90
2019-03-10T10:16:55.697Z,99.90
2019-03-10T10:19:47.904Z,99.90
2019-03-10T10:22:29.262Z,99.90
2019-03-10T10:25:13.841Z,99.90
2019-03-10T10:28:06.412Z,99.90
2019-03-10T10:30:51.425Z,99.90
2019-03-10T10:33:39.769Z,99.90
2019-03-10T10:36:31.871Z,99.90
2019-03-10T10:39:21.235Z,99.90
2019-03-10T10:42:11.501Z,99.90
2019-03-10T10:45:09.868Z,99.90
2019-03-10T10:48:05.350Z,99.90
2019-03-10T10:50:57.711Z,99.90
2019-03-10T10:53:37.411Z,99.90
2019-03-10T10:56:25.545Z,99.90
2019-03-10T10:59:14.081Z,99.90
2019-03-10T11:01:55.385Z,99.90
2019-03-10T11:04:34.939Z,99.90
2019-03-10T11:07:10.059Z,99.90
2019-03-10T11:09:54.053Z,99.90
2019-03-10T11:12:46.709Z,99.90
2019-03-10T11:15:27.275Z,99.90
2019-03-10T11:18:21.135Z,99.90
2019-03-10T11:21:02.074Z,99.90
2019-03-10T11:23:44.463Z,99.90
2019-03-10T11:26:26.561Z,99.90
2019-03-10T11:29:16.021Z,99.90
2019-03-10T11:31:52.874Z,99.90
2019-03-10T11:34:35.851Z,99.90
2019-03-10T11:37:24.685Z,99.90
2019-03-10T11:40:04.102Z,99.90
2019-03-10T11:43:02.487Z,99.90
2019-03-10T11:45:50.553Z,99.90
2019-03-10T11:48:55.323Z,99.90
2019-03-10T11:51:33.240Z,99.90
2019-03-10T11:54:28.565Z,99.90
2019-03-10T11:57:25.633Z,99.90
2019-03-10T12:00:14.997Z,99.90
2019-03-10T12:03:02.925Z,99.50
2019-03-10T12:05:52.324Z,99.90
2019-03-10T12:08:28.799Z,99.90
2019-03-10T12:10:59.314Z,99.20
2019-03-10T12:13:29.740Z,99.90
2019-03-10T12:16:00.219Z,99.80
2019-03-10T12:18:30.660Z,98.50
2019-03-10T12:21:01.209Z,97.40
2019-03-10T12:23:31.625Z,99.40
2019-03-10T12:26:02.129Z,99.80
2019-03-10T12:28:32.566Z,99.90
2019-03-10T12:31:02.939Z,99.90
2019-03-10T12:33:33.343Z,99.90
2019-03-10T12:36:03.815Z,99.90
2019-03-10T12:38:34.326Z,98.80
2019-03-10T12:41:04.851Z,99.10
2019-03-10T12:43:36.418Z,97.40
2019-03-10T12:46:06.953Z,96.50
2019-03-10T12:48:37.348Z,97.70
2019-03-10T12:51:08.190Z,98.50
2019-03-10T12:53:38.945Z,97.60
2019-03-10T12:56:09.827Z,95.80
2019-03-10T12:58:40.611Z,97.10
2019-03-10T13:01:11.221Z,96.80
2019-03-10T13:03:42.356Z,95.40
2019-03-10T13:06:13.025Z,94.60
2019-03-10T13:08:43.927Z,97.30
2019-03-10T13:11:14.591Z,96.90
2019-03-10T13:13:46.059Z,96.40
2019-03-10T13:16:16.573Z,94.00
2019-03-10T13:18:47.105Z,97.90
2019-03-10T13:21:17.576Z,97.50
2019-03-10T13:23:48.058Z,96.50
2019-03-10T13:26:18.583Z,97.10
2019-03-10T13:28:49.340Z,95.30
2019-03-10T13:31:20.280Z,97.30
2019-03-10T13:33:50.849Z,96.80
2019-03-10T13:36:21.592Z,95.90
2019-03-10T13:38:52.253Z,95.50
2019-03-10T13:41:22.738Z,95.00
2019-03-10T13:43:53.124Z,96.40
2019-03-10T13:46:23.586Z,96.80
2019-03-10T13:48:54.730Z,97.00
2019-03-10T13:51:25.070Z,98.00
2019-03-10T13:53:55.647Z,96.80
2019-03-10T13:56:26.263Z,97.50
2019-03-10T13:58:56.918Z,97.90
2019-03-10T14:01:27.935Z,98.10
2019-03-10T14:04:00.212Z,99.00
2019-03-10T14:06:30.851Z,99.90
2019-03-10T14:09:01.232Z,94.80
2019-03-10T14:11:34.004Z,98.60
2019-03-10T14:14:04.995Z,96.50
2019-03-10T14:16:35.926Z,95.40
2019-03-10T14:19:06.596Z,96.20
2019-03-10T14:21:37.253Z,95.80
2019-03-10T14:24:07.688Z,95.60
2019-03-10T14:26:39.185Z,94.10
2019-03-10T14:29:09.610Z,94.50
2019-03-10T14:31:40.120Z,95.30
2019-03-10T14:34:10.843Z,93.20
2019-03-10T14:36:41.589Z,96.00
2019-03-10T14:39:12.037Z,95.30
2019-03-10T14:41:43.050Z,94.70
2019-03-10T14:44:13.582Z,95.40
2019-03-10T14:46:47.278Z,97.00
2019-03-10T14:49:23.161Z,96.60
2019-03-10T14:51:50.216Z,97.10
2019-03-10T14:54:20.833Z,97.00
2019-03-10T14:56:51.602Z,96.50
2019-03-10T14:59:22.150Z,96.60
2019-03-10T15:01:52.758Z,95.90
2019-03-10T15:04:23.491Z,95.80
2019-03-10T15:06:53.895Z,95.40
2019-03-10T15:09:24.413Z,95.90
2019-03-10T15:11:54.833Z,94.00
2019-03-10T15:14:25.195Z,95.10
2019-03-10T15:17:01.437Z,95.40
2019-03-10T15:19:28.618Z,94.10
2019-03-10T15:21:59.066Z,95.20
2019-03-10T15:24:30.113Z,94.80
2019-03-10T15:27:00.645Z,94.30
2019-03-10T15:29:31.101Z,93.70
2019-03-10T15:32:01.586Z,94.00
2019-03-10T15:34:32.216Z,93.70
2019-03-10T15:37:04.873Z,93.00
2019-03-10T15:39:35.391Z,92.20
2019-03-10T15:42:06.060Z,92.60
2019-03-10T15:44:36.448Z,92.00
2019-03-10T15:47:06.827Z,91.80
2019-03-10T15:49:37.292Z,91.70
2019-03-10T15:52:07.756Z,91.30
2019-03-10T15:54:39.046Z,90.90
2019-03-10T15:57:09.782Z,91.60
2019-03-10T15:59:40.403Z,91.20
2019-03-10T16:02:11.384Z,90.90
2019-03-10T16:04:41.926Z,90.80
2019-03-10T16:07:13.132Z,90.10
2019-03-10T16:09:43.990Z,90.80
2019-03-10T16:12:14.381Z,91.00
2019-03-10T16:14:45.073Z,91.10
2019-03-10T16:17:15.398Z,91.30
2019-03-10T16:19:45.926Z,90.70
2019-03-10T16:22:16.323Z,90.20
2019-03-10T16:24:46.782Z,90.00
2019-03-10T16:27:17.313Z,89.40
2019-03-10T16:29:47.771Z,90.10
2019-03-10T16:32:18.313Z,90.60
2019-03-10T16:34:48.979Z,91.30
2019-03-10T16:37:19.372Z,91.60
2019-03-10T16:39:51.384Z,92.00
2019-03-10T16:42:21.819Z,92.30
2019-03-10T16:44:52.335Z,92.40
2019-03-10T16:47:24.642Z,92.50
2019-03-10T16:49:55.304Z,92.80
2019-03-10T16:52:26.068Z,93.20
2019-03-10T16:54:56.695Z,93.30
2019-03-10T16:57:27.584Z,93.60
2019-03-10T16:59:58.156Z,93.90
2019-03-10T17:02:28.654Z,94.60
2019-03-10T17:04:59.166Z,95.40
2019-03-10T17:07:29.562Z,96.80
2019-03-10T17:10:00.023Z,97.30
2019-03-10T17:12:31.314Z,98.20
2019-03-10T17:15:02.451Z,98.80
2019-03-10T17:17:33.640Z,99.30
2019-03-10T17:20:05.162Z,99.90
2019-03-10T17:22:36.091Z,99.90
2019-03-10T17:25:06.636Z,99.90
2019-03-10T17:27:37.146Z,99.90
2019-03-10T17:30:10.358Z,99.90
2019-03-10T17:32:40.806Z,99.90
2019-03-10T17:35:12.264Z,99.90
2019-03-10T17:37:44.462Z,99.90
2019-03-10T17:40:16.546Z,99.90
2019-03-10T17:42:47.306Z,99.90
2019-03-10T17:45:18.668Z,99.90
2019-03-10T17:47:49.409Z,99.90
2019-03-10T17:50:20.633Z,99.90
2019-03-10T17:52:51.612Z,99.90
2019-03-10T17:55:22.039Z,99.90
2019-03-10T17:57:52.544Z,99.90
2019-03-10T18:00:25.110Z,99.90
2019-03-10T18:02:55.654Z,99.90
2019-03-10T18:05:26.428Z,99.90
2019-03-10T18:07:56.832Z,99.90
2019-03-10T18:10:27.259Z,99.90
2019-03-10T18:12:57.757Z,99.90
2019-03-10T18:15:28.166Z,99.90
2019-03-10T18:17:58.637Z,99.90
2019-03-10T18:20:29.337Z,99.90
2019-03-10T18:22:59.852Z,99.90
2019-03-10T18:25:30.948Z,99.90
2019-03-10T18:28:01.745Z,99.90
2019-03-10T18:30:32.382Z,99.90
2019-03-10T18:33:03.450Z,99.90
2019-03-10T18:35:34.064Z,99.90
2019-03-10T18:38:04.554Z,99.90
2019-03-10T18:40:35.420Z,99.90
2019-03-10T18:43:06.197Z,99.90
2019-03-10T18:45:36.638Z,99.90
2019-03-10T18:48:07.825Z,99.90
2019-03-10T18:50:38.329Z,99.90
2019-03-10T18:53:09.310Z,99.90
2019-03-10T18:55:40.241Z,99.90
2019-03-10T18:58:10.842Z,99.90
2019-03-10T19:00:42.061Z,99.90
2019-03-10T19:03:12.662Z,99.90
2019-03-10T19:05:43.297Z,99.90
2019-03-10T19:08:15.197Z,99.90
2019-03-10T19:10:45.775Z,99.90
2019-03-10T19:13:16.414Z,99.90
2019-03-10T19:15:47.343Z,99.90
2019-03-10T19:18:17.938Z,99.90
2019-03-10T19:20:48.636Z,99.90
2019-03-10T19:23:19.561Z,99.90
2019-03-10T19:25:50.302Z,99.90
2019-03-10T19:28:20.790Z,99.90
2019-03-10T19:30:51.285Z,99.90
2019-03-10T19:33:22.042Z,99.90
2019-03-10T19:35:52.732Z,99.90
2019-03-10T19:38:23.420Z,99.90
2019-03-10T19:40:54.490Z,99.90
2019-03-10T19:43:25.018Z,99.90
2019-03-10T19:45:55.466Z,99.90
2019-03-10T19:48:25.879Z,99.90
2019-03-10T19:50:56.288Z,99.90
2019-03-10T19:53:28.262Z,99.90
2019-03-10T19:55:58.855Z,99.90
2019-03-10T19:58:29.712Z,99.90
2019-03-10T20:01:00.326Z,99.90
2019-03-10T20:03:30.840Z,99.90
2019-03-10T20:06:01.448Z,99.90
2019-03-10T20:08:32.004Z,99.90
2019-03-10T20:11:02.541Z,99.90
2019-03-10T20:13:33.171Z,99.90
2019-03-10T20:16:03.681Z,99.90
2019-03-10T20:18:34.268Z,99.90
2019-03-10T20:21:04.709Z,99.90
2019-03-10T20:23:35.974Z,99.90
2019-03-10T20:26:06.745Z,99.90
2019-03-10T20:28:37.680Z,99.90
2019-03-10T20:31:08.510Z,99.90
2019-03-10T20:33:40.678Z,99.90
2019-03-10T20:36:11.253Z,99.90
2019-03-10T20:38:41.862Z,99.90
2019-03-10T20:41:12.366Z,99.90
2019-03-10T20:43:43.518Z,99.90
2019-03-10T20:46:14.092Z,99.90
2019-03-10T20:48:46.890Z,99.90
2019-03-10T20:51:17.688Z,99.90
2019-03-10T20:53:48.528Z,99.90
2019-03-10T20:56:19.000Z,99.90
2019-03-10T20:58:49.459Z,99.90
2019-03-10T21:01:21.339Z,99.90
2019-03-10T21:03:52.434Z,99.90
2019-03-10T21:06:22.938Z,99.90
2019-03-10T21:08:53.390Z,99.90
2019-03-10T21:11:24.558Z,99.90
2019-03-10T21:13:55.017Z,99.90
2019-03-10T21:16:25.947Z,99.90
2019-03-10T21:18:56.554Z,99.90
2019-03-10T21:21:27.086Z,99.90
2019-03-10T21:23:59.117Z,99.90
2019-03-10T21:26:29.841Z,99.90
2019-03-10T21:29:00.633Z,99.90
2019-03-10T21:31:32.008Z,99.90
2019-03-10T21:34:02.604Z,99.90
2019-03-10T21:36:35.372Z,99.90
2019-03-10T21:39:06.962Z,99.90
2019-03-10T21:41:39.189Z,99.90
2019-03-10T21:44:11.272Z,99.90
2019-03-10T21:46:43.073Z,99.90
2019-03-10T21:49:14.186Z,99.90
2019-03-10T21:51:44.648Z,99.90
2019-03-10T21:54:15.439Z,99.90
2019-03-10T21:56:45.900Z,99.90
2019-03-10T21:59:16.336Z,99.90
2019-03-10T22:01:46.820Z,99.90
2019-03-10T22:04:17.313Z,99.90
2019-03-10T22:06:47.796Z,99.90
2019-03-10T22:09:18.733Z,99.90
2019-03-10T22:11:49.271Z,99.90
2019-03-10T22:14:19.701Z,99.90
2019-03-10T22:16:50.234Z,99.90
2019-03-10T22:19:23.022Z,99.90
2019-03-10T22:21:53.107Z,99.90
2019-03-10T22:24:23.514Z,99.90
2019-03-10T22:26:53.950Z,99.90
2019-03-10T22:29:24.531Z,99.90
2019-03-10T22:31:55.009Z,99.90
2019-03-10T22:34:25.471Z,99.90
2019-03-10T22:36:55.955Z,99.90
2019-03-10T22:39:26.311Z,99.90
2019-03-10T22:41:56.848Z,99.90
2019-03-10T22:44:27.467Z,99.90
2019-03-10T22:46:58.197Z,99.90
2019-03-10T22:49:28.581Z,99.90
2019-03-10T22:51:59.059Z,99.90
2019-03-10T22:54:29.517Z,99.90
2019-03-10T22:56:59.962Z,99.90
2019-03-10T22:59:30.935Z,99.90
2019-03-10T23:02:01.718Z,99.90
2019-03-10T23:04:32.619Z,99.90
2019-03-10T23:07:03.238Z,99.90
2019-03-10T23:09:33.923Z,99.90
2019-03-10T23:12:04.315Z,99.90
2019-03-10T23:14:34.752Z,99.90
2019-03-10T23:17:05.161Z,99.90
2019-03-10T23:19:35.589Z,99.90
2019-03-10T23:22:06.206Z,99.90
2019-03-10T23:24:36.666Z,99.90
2019-03-10T23:27:07.079Z,99.90
2019-03-10T23:29:38.036Z,99.90
2019-03-10T23:32:08.395Z,99.90
2019-03-10T23:34:38.907Z,99.90
2019-03-10T23:37:09.399Z,99.90
2019-03-10T23:39:39.917Z,99.90
2019-03-10T23:42:10.494Z,99.90
2019-03-10T23:44:41.377Z,99.90
2019-03-10T23:47:11.918Z,99.90
2019-03-10T23:49:42.354Z,99.90
2019-03-10T23:52:12.736Z,99.90
2019-03-10T23:54:43.933Z,99.90
2019-03-10T23:57:14.555Z,99.90
2019-03-10T23:59:45.391Z,99.90
